sensor_id;sensor_type;location;lat;lon;timestamp;pressure;altitude;pressure_sealevel;temperature;humidity
7774;BME280;3931;42.260;23.116;2022-12-05T00:00:30;96350.09;;;13.80;63.58
7774;BME280;3931;42.260;23.116;2022-12-05T00:02:57;96346.09;;;13.33;65.61
7774;BME280;3931;42.260;23.116;2022-12-05T00:05:24;96359.91;;;13.53;65.44
7774;BME280;3931;42.260;23.116;2022-12-05T00:07:50;96354.81;;;14.12;62.93
7774;BME280;3931;42.260;23.116;2022-12-05T00:10:16;96352.81;;;14.13;62.97
7774;BME280;3931;42.260;23.116;2022-12-05T00:12:42;96354.97;;;14.21;62.30
7774;BME280;3931;42.260;23.116;2022-12-05T00:15:09;96350.53;;;13.79;63.84
7774;BME280;3931;42.260;23.116;2022-12-05T00:17:37;96347.78;;;14.08;64.00
7774;BME280;3931;42.260;23.116;2022-12-05T00:20:05;96350.97;;;14.51;61.56
7774;BME280;3931;42.260;23.116;2022-12-05T00:22:35;96347.16;;;14.16;62.19
7774;BME280;3931;42.260;23.116;2022-12-05T00:25:01;96354.34;;;14.58;61.72
7774;BME280;3931;42.260;23.116;2022-12-05T00:27:27;96351.88;;;14.03;62.24
7774;BME280;3931;42.260;23.116;2022-12-05T00:29:53;96343.34;;;14.10;62.04
7774;BME280;3931;42.260;23.116;2022-12-05T00:32:19;96346.00;;;13.53;64.45
7774;BME280;3931;42.260;23.116;2022-12-05T00:34:46;96344.41;;;14.57;61.70
7774;BME280;3931;42.260;23.116;2022-12-05T00:37:12;96347.94;;;14.17;62.32
7774;BME280;3931;42.260;23.116;2022-12-05T00:39:39;96347.81;;;14.20;62.34
7774;BME280;3931;42.260;23.116;2022-12-05T00:42:05;96349.84;;;13.59;64.07
7774;BME280;3931;42.260;23.116;2022-12-05T00:44:31;96351.06;;;13.74;63.64
7774;BME280;3931;42.260;23.116;2022-12-05T00:46:57;96353.56;;;14.13;63.24
7774;BME280;3931;42.260;23.116;2022-12-05T00:49:23;96350.19;;;13.77;64.27
7774;BME280;3931;42.260;23.116;2022-12-05T00:51:49;96346.53;;;13.64;64.86
7774;BME280;3931;42.260;23.116;2022-12-05T00:54:16;96345.81;;;13.92;64.76
7774;BME280;3931;42.260;23.116;2022-12-05T00:56:43;96347.69;;;13.95;64.47
7774;BME280;3931;42.260;23.116;2022-12-05T00:59:14;96350.31;;;13.86;63.32
7774;BME280;3931;42.260;23.116;2022-12-05T01:01:41;96347.00;;;13.91;64.42
7774;BME280;3931;42.260;23.116;2022-12-05T01:04:11;96348.50;;;14.24;62.77
7774;BME280;3931;42.260;23.116;2022-12-05T01:06:38;96337.81;;;13.94;63.13
7774;BME280;3931;42.260;23.116;2022-12-05T01:09:04;96340.06;;;13.99;62.10
7774;BME280;3931;42.260;23.116;2022-12-05T01:11:31;96338.97;;;14.67;61.51
7774;BME280;3931;42.260;23.116;2022-12-05T01:13:58;96338.59;;;15.18;59.59
7774;BME280;3931;42.260;23.116;2022-12-05T01:16:27;96340.09;;;14.69;60.02
7774;BME280;3931;42.260;23.116;2022-12-05T01:18:53;96336.69;;;15.28;58.78
7774;BME280;3931;42.260;23.116;2022-12-05T01:21:20;96330.44;;;15.49;58.07
7774;BME280;3931;42.260;23.116;2022-12-05T01:23:47;96331.13;;;16.00;56.70
7774;BME280;3931;42.260;23.116;2022-12-05T01:26:14;96328.16;;;16.16;55.89
7774;BME280;3931;42.260;23.116;2022-12-05T01:28:42;96331.22;;;16.31;55.89
7774;BME280;3931;42.260;23.116;2022-12-05T01:31:15;96336.09;;;16.39;55.43
7774;BME280;3931;42.260;23.116;2022-12-05T01:33:42;96337.22;;;16.42;55.13
7774;BME280;3931;42.260;23.116;2022-12-05T01:36:10;96341.50;;;15.53;57.60
7774;BME280;3931;42.260;23.116;2022-12-05T01:38:38;96339.00;;;14.92;59.92
7774;BME280;3931;42.260;23.116;2022-12-05T01:41:05;96337.72;;;15.47;58.71
7774;BME280;3931;42.260;23.116;2022-12-05T01:43:32;96339.06;;;14.50;61.05
7774;BME280;3931;42.260;23.116;2022-12-05T01:45:58;96341.81;;;15.29;59.76
7774;BME280;3931;42.260;23.116;2022-12-05T01:48:28;96346.28;;;15.27;59.37
7774;BME280;3931;42.260;23.116;2022-12-05T01:50:56;96349.06;;;15.40;58.74
7774;BME280;3931;42.260;23.116;2022-12-05T01:53:24;96349.50;;;14.46;60.84
7774;BME280;3931;42.260;23.116;2022-12-05T01:55:52;96345.38;;;14.51;60.41
7774;BME280;3931;42.260;23.116;2022-12-05T01:58:19;96346.28;;;15.02;58.50
7774;BME280;3931;42.260;23.116;2022-12-05T02:00:46;96339.34;;;15.31;57.35
7774;BME280;3931;42.260;23.116;2022-12-05T02:03:16;96340.84;;;15.49;56.71
7774;BME280;3931;42.260;23.116;2022-12-05T02:05:46;96335.53;;;15.76;56.10
7774;BME280;3931;42.260;23.116;2022-12-05T02:08:13;96337.78;;;15.56;56.12
7774;BME280;3931;42.260;23.116;2022-12-05T02:10:42;96328.44;;;15.96;55.18
7774;BME280;3931;42.260;23.116;2022-12-05T02:13:22;96326.06;;;16.08;54.87
7774;BME280;3931;42.260;23.116;2022-12-05T02:15:54;96326.13;;;15.82;55.73
7774;BME280;3931;42.260;23.116;2022-12-05T02:18:38;96328.59;;;15.80;55.28
7774;BME280;3931;42.260;23.116;2022-12-05T02:27:22;96327.53;;;15.65;55.95
7774;BME280;3931;42.260;23.116;2022-12-05T02:30:10;96319.75;;;15.94;55.19
7774;BME280;3931;42.260;23.116;2022-12-05T02:32:50;96310.59;;;15.94;55.56
7774;BME280;3931;42.260;23.116;2022-12-05T02:35:30;96313.22;;;15.76;55.81
7774;BME280;3931;42.260;23.116;2022-12-05T02:38:07;96309.13;;;15.43;55.83
7774;BME280;3931;42.260;23.116;2022-12-05T02:40:42;96310.69;;;15.31;56.55
7774;BME280;3931;42.260;23.116;2022-12-05T02:43:12;96316.13;;;15.72;55.66
7774;BME280;3931;42.260;23.116;2022-12-05T02:45:41;96309.59;;;14.91;57.40
7774;BME280;3931;42.260;23.116;2022-12-05T02:48:10;96300.31;;;14.69;58.76
7774;BME280;3931;42.260;23.116;2022-12-05T02:50:40;96302.63;;;14.16;60.84
7774;BME280;3931;42.260;23.116;2022-12-05T02:53:09;96297.16;;;14.13;59.98
7774;BME280;3931;42.260;23.116;2022-12-05T02:55:36;96305.94;;;14.11;61.45
7774;BME280;3931;42.260;23.116;2022-12-05T02:58:06;96301.81;;;15.11;58.01
7774;BME280;3931;42.260;23.116;2022-12-05T03:00:34;96302.03;;;15.04;58.04
7774;BME280;3931;42.260;23.116;2022-12-05T03:03:09;96299.69;;;14.36;59.62
7774;BME280;3931;42.260;23.116;2022-12-05T03:05:40;96313.50;;;14.11;61.49
7774;BME280;3931;42.260;23.116;2022-12-05T03:08:13;96305.91;;;14.81;59.51
7774;BME280;3931;42.260;23.116;2022-12-05T03:10:44;96308.38;;;14.38;60.76
7774;BME280;3931;42.260;23.116;2022-12-05T03:13:13;96307.53;;;14.53;61.34
7774;BME280;3931;42.260;23.116;2022-12-05T03:15:46;96296.06;;;14.23;60.88
7774;BME280;3931;42.260;23.116;2022-12-05T03:18:18;96290.31;;;13.72;62.98
7774;BME280;3931;42.260;23.116;2022-12-05T03:20:49;96298.91;;;13.78;63.46
7774;BME280;3931;42.260;23.116;2022-12-05T03:23:20;96297.69;;;14.36;61.72
7774;BME280;3931;42.260;23.116;2022-12-05T03:25:52;96290.06;;;14.24;62.22
7774;BME280;3931;42.260;23.116;2022-12-05T03:28:22;96304.28;;;14.42;61.92
7774;BME280;3931;42.260;23.116;2022-12-05T03:30:52;96297.84;;;14.17;61.74
7774;BME280;3931;42.260;23.116;2022-12-05T03:33:22;96300.13;;;13.77;62.78
7774;BME280;3931;42.260;23.116;2022-12-05T03:35:58;96304.50;;;13.90;63.13
7774;BME280;3931;42.260;23.116;2022-12-05T03:38:30;96305.63;;;13.93;62.79
7774;BME280;3931;42.260;23.116;2022-12-05T03:41:05;96306.59;;;13.09;64.12
7774;BME280;3931;42.260;23.116;2022-12-05T03:43:36;96307.34;;;13.74;63.93
7774;BME280;3931;42.260;23.116;2022-12-05T03:46:07;96316.97;;;14.15;62.47
7774;BME280;3931;42.260;23.116;2022-12-05T03:48:39;96322.97;;;14.13;62.68
7774;BME280;3931;42.260;23.116;2022-12-05T03:51:12;96324.28;;;14.91;59.70
7774;BME280;3931;42.260;23.116;2022-12-05T03:53:44;96328.00;;;15.26;58.75
7774;BME280;3931;42.260;23.116;2022-12-05T03:56:15;96329.66;;;15.61;57.05
7774;BME280;3931;42.260;23.116;2022-12-05T03:58:46;96330.09;;;15.34;57.93
7774;BME280;3931;42.260;23.116;2022-12-05T04:01:15;96322.31;;;15.42;57.81
7774;BME280;3931;42.260;23.116;2022-12-05T04:03:46;96329.28;;;15.72;57.07
7774;BME280;3931;42.260;23.116;2022-12-05T04:06:19;96326.03;;;15.86;56.21
7774;BME280;3931;42.260;23.116;2022-12-05T04:08:49;96325.28;;;15.60;57.23
7774;BME280;3931;42.260;23.116;2022-12-05T04:11:20;96327.19;;;15.63;56.99
7774;BME280;3931;42.260;23.116;2022-12-05T04:13:51;96327.06;;;15.79;56.02
7774;BME280;3931;42.260;23.116;2022-12-05T04:16:21;96328.50;;;15.84;55.92
7774;BME280;3931;42.260;23.116;2022-12-05T04:19:10;96319.81;;;15.82;55.27
7774;BME280;3931;42.260;23.116;2022-12-05T04:21:42;96312.44;;;15.75;55.76
7774;BME280;3931;42.260;23.116;2022-12-05T04:24:13;96315.63;;;15.52;56.02
7774;BME280;3931;42.260;23.116;2022-12-05T04:27:08;96311.50;;;15.19;57.06
7774;BME280;3931;42.260;23.116;2022-12-05T04:29:43;96308.00;;;15.40;56.85
7774;BME280;3931;42.260;23.116;2022-12-05T04:32:12;96314.13;;;15.60;56.29
7774;BME280;3931;42.260;23.116;2022-12-05T04:34:41;96317.41;;;15.21;57.20
7774;BME280;3931;42.260;23.116;2022-12-05T04:37:15;96313.41;;;15.22;57.20
7774;BME280;3931;42.260;23.116;2022-12-05T04:39:47;96320.84;;;14.87;58.02
7774;BME280;3931;42.260;23.116;2022-12-05T04:42:17;96324.97;;;15.20;57.87
7774;BME280;3931;42.260;23.116;2022-12-05T04:44:48;96321.28;;;15.36;57.39
7774;BME280;3931;42.260;23.116;2022-12-05T04:47:16;96326.31;;;15.41;57.49
7774;BME280;3931;42.260;23.116;2022-12-05T04:49:45;96328.31;;;15.66;56.83
7774;BME280;3931;42.260;23.116;2022-12-05T04:52:12;96327.88;;;15.55;56.90
7774;BME280;3931;42.260;23.116;2022-12-05T04:54:42;96327.75;;;15.58;56.77
7774;BME280;3931;42.260;23.116;2022-12-05T04:57:13;96334.94;;;15.47;57.24
7774;BME280;3931;42.260;23.116;2022-12-05T04:59:41;96341.28;;;15.47;56.76
7774;BME280;3931;42.260;23.116;2022-12-05T05:02:09;96355.53;;;15.37;57.17
7774;BME280;3931;42.260;23.116;2022-12-05T05:04:37;96356.88;;;15.70;56.15
7774;BME280;3931;42.260;23.116;2022-12-05T05:07:07;96369.50;;;15.49;55.67
7774;BME280;3931;42.260;23.116;2022-12-05T05:09:34;96367.50;;;15.62;56.21
7774;BME280;3931;42.260;23.116;2022-12-05T05:12:01;96368.16;;;15.66;55.58
7774;BME280;3931;42.260;23.116;2022-12-05T05:14:27;96375.50;;;15.73;55.74
7774;BME280;3931;42.260;23.116;2022-12-05T05:16:53;96377.38;;;15.88;55.27
7774;BME280;3931;42.260;23.116;2022-12-05T05:19:19;96383.28;;;15.90;55.15
7774;BME280;3931;42.260;23.116;2022-12-05T05:21:45;96380.06;;;15.79;55.32
7774;BME280;3931;42.260;23.116;2022-12-05T05:24:14;96382.97;;;15.76;55.72
7774;BME280;3931;42.260;23.116;2022-12-05T05:26:41;96385.09;;;15.84;55.48
7774;BME280;3931;42.260;23.116;2022-12-05T05:29:09;96394.25;;;15.47;56.95
7774;BME280;3931;42.260;23.116;2022-12-05T05:31:36;96396.00;;;15.91;55.65
7774;BME280;3931;42.260;23.116;2022-12-05T05:34:04;96394.97;;;15.98;55.75
7774;BME280;3931;42.260;23.116;2022-12-05T05:36:31;96401.59;;;15.79;56.51
7774;BME280;3931;42.260;23.116;2022-12-05T05:38:59;96397.34;;;15.99;56.01
7774;BME280;3931;42.260;23.116;2022-12-05T05:41:30;96408.50;;;15.87;55.70
7774;BME280;3931;42.260;23.116;2022-12-05T05:43:56;96397.28;;;16.12;56.99
7774;BME280;3931;42.260;23.116;2022-12-05T05:46:25;96388.25;;;16.08;56.63
7774;BME280;3931;42.260;23.116;2022-12-05T05:48:51;96384.66;;;16.20;55.22
7774;BME280;3931;42.260;23.116;2022-12-05T05:51:18;96381.16;;;15.94;55.40
7774;BME280;3931;42.260;23.116;2022-12-05T05:53:45;96391.59;;;15.69;56.57
7774;BME280;3931;42.260;23.116;2022-12-05T05:56:13;96390.44;;;15.28;57.21
7774;BME280;3931;42.260;23.116;2022-12-05T05:58:40;96382.94;;;15.00;57.59
7774;BME280;3931;42.260;23.116;2022-12-05T06:01:09;96382.50;;;15.02;57.68
7774;BME280;3931;42.260;23.116;2022-12-05T06:03:36;96385.97;;;15.06;57.08
7774;BME280;3931;42.260;23.116;2022-12-05T06:06:05;96389.03;;;14.83;57.70
7774;BME280;3931;42.260;23.116;2022-12-05T06:08:33;96389.00;;;14.13;59.82
7774;BME280;3931;42.260;23.116;2022-12-05T06:10:59;96385.75;;;14.30;60.20
7774;BME280;3931;42.260;23.116;2022-12-05T06:13:29;96379.47;;;14.96;57.77
7774;BME280;3931;42.260;23.116;2022-12-05T06:15:56;96387.53;;;14.08;60.32
7774;BME280;3931;42.260;23.116;2022-12-05T06:18:22;96387.50;;;15.07;58.22
7774;BME280;3931;42.260;23.116;2022-12-05T06:20:51;96387.31;;;15.39;56.69
7774;BME280;3931;42.260;23.116;2022-12-05T06:23:18;96386.13;;;14.74;58.52
7774;BME280;3931;42.260;23.116;2022-12-05T06:25:46;96386.16;;;14.86;58.36
7774;BME280;3931;42.260;23.116;2022-12-05T06:28:12;96389.03;;;14.83;58.68
7774;BME280;3931;42.260;23.116;2022-12-05T06:30:38;96400.66;;;14.52;58.96
7774;BME280;3931;42.260;23.116;2022-12-05T06:33:05;96394.28;;;14.93;58.66
7774;BME280;3931;42.260;23.116;2022-12-05T06:35:31;96398.66;;;15.07;57.96
7774;BME280;3931;42.260;23.116;2022-12-05T06:37:57;96398.47;;;15.39;56.88
7774;BME280;3931;42.260;23.116;2022-12-05T06:40:23;96401.94;;;15.30;57.27
7774;BME280;3931;42.260;23.116;2022-12-05T06:42:49;96396.38;;;15.56;56.20
7774;BME280;3931;42.260;23.116;2022-12-05T06:45:16;96391.84;;;15.96;55.52
7774;BME280;3931;42.260;23.116;2022-12-05T06:47:42;96398.03;;;15.78;55.69
7774;BME280;3931;42.260;23.116;2022-12-05T06:50:09;96394.28;;;15.60;56.21
7774;BME280;3931;42.260;23.116;2022-12-05T06:52:35;96392.13;;;15.89;55.24
7774;BME280;3931;42.260;23.116;2022-12-05T06:55:02;96384.97;;;15.88;56.00
7774;BME280;3931;42.260;23.116;2022-12-05T06:57:28;96383.09;;;16.19;54.75
7774;BME280;3931;42.260;23.116;2022-12-05T06:59:54;96380.09;;;16.14;55.31
7774;BME280;3931;42.260;23.116;2022-12-05T07:02:40;96381.56;;;16.40;54.32
7774;BME280;3931;42.260;23.116;2022-12-05T07:05:06;96379.91;;;16.42;53.89
7774;BME280;3931;42.260;23.116;2022-12-05T07:07:33;96375.94;;;16.18;55.39
7774;BME280;3931;42.260;23.116;2022-12-05T07:09:59;96377.22;;;16.04;55.14
7774;BME280;3931;42.260;23.116;2022-12-05T07:12:25;96374.06;;;15.68;56.07
7774;BME280;3931;42.260;23.116;2022-12-05T07:14:52;96368.63;;;15.99;55.73
7774;BME280;3931;42.260;23.116;2022-12-05T07:17:19;96362.81;;;16.40;54.10
7774;BME280;3931;42.260;23.116;2022-12-05T07:19:46;96373.34;;;15.89;55.55
7774;BME280;3931;42.260;23.116;2022-12-05T07:22:13;96371.66;;;15.92;55.07
7774;BME280;3931;42.260;23.116;2022-12-05T07:24:39;96374.91;;;15.90;55.94
7774;BME280;3931;42.260;23.116;2022-12-05T07:27:05;96377.13;;;16.30;54.82
7774;BME280;3931;42.260;23.116;2022-12-05T07:29:32;96378.81;;;16.61;54.15
7774;BME280;3931;42.260;23.116;2022-12-05T07:31:58;96384.22;;;16.77;53.95
7774;BME280;3931;42.260;23.116;2022-12-05T07:34:24;96380.50;;;16.59;53.56
7774;BME280;3931;42.260;23.116;2022-12-05T07:36:50;96388.50;;;16.69;54.12
7774;BME280;3931;42.260;23.116;2022-12-05T07:39:16;96390.56;;;16.56;53.65
7774;BME280;3931;42.260;23.116;2022-12-05T07:41:43;96396.75;;;16.51;54.33
7774;BME280;3931;42.260;23.116;2022-12-05T07:44:10;96387.81;;;16.78;53.75
7774;BME280;3931;42.260;23.116;2022-12-05T07:46:37;96387.34;;;16.80;53.16
7774;BME280;3931;42.260;23.116;2022-12-05T07:49:04;96391.41;;;16.88;53.25
7774;BME280;3931;42.260;23.116;2022-12-05T07:51:30;96385.41;;;17.20;52.79
7774;BME280;3931;42.260;23.116;2022-12-05T07:53:58;96387.88;;;17.18;52.44
7774;BME280;3931;42.260;23.116;2022-12-05T07:56:24;96386.38;;;17.26;52.28
7774;BME280;3931;42.260;23.116;2022-12-05T07:58:51;96388.31;;;17.16;52.46
7774;BME280;3931;42.260;23.116;2022-12-05T08:01:20;96397.88;;;17.28;52.59
7774;BME280;3931;42.260;23.116;2022-12-05T08:03:48;96396.28;;;17.18;52.59
7774;BME280;3931;42.260;23.116;2022-12-05T08:06:16;96396.41;;;17.14;52.76
7774;BME280;3931;42.260;23.116;2022-12-05T08:08:43;96393.91;;;17.38;52.07
7774;BME280;3931;42.260;23.116;2022-12-05T08:11:11;96399.28;;;17.02;52.65
7774;BME280;3931;42.260;23.116;2022-12-05T08:13:38;96395.13;;;17.06;52.50
7774;BME280;3931;42.260;23.116;2022-12-05T08:16:07;96391.47;;;17.18;52.61
7774;BME280;3931;42.260;23.116;2022-12-05T08:18:34;96391.31;;;17.22;52.38
7774;BME280;3931;42.260;23.116;2022-12-05T08:21:01;96394.91;;;17.22;52.51
7774;BME280;3931;42.260;23.116;2022-12-05T08:23:28;96396.75;;;16.95;53.24
7774;BME280;3931;42.260;23.116;2022-12-05T08:25:55;96401.63;;;16.60;53.91
7774;BME280;3931;42.260;23.116;2022-12-05T08:28:21;96404.16;;;16.33;54.95
7774;BME280;3931;42.260;23.116;2022-12-05T08:30:47;96405.19;;;16.26;55.58
7774;BME280;3931;42.260;23.116;2022-12-05T08:33:14;96403.78;;;16.43;55.36
7774;BME280;3931;42.260;23.116;2022-12-05T08:35:40;96404.44;;;16.60;54.85
7774;BME280;3931;42.260;23.116;2022-12-05T08:38:06;96406.06;;;16.36;55.02
7774;BME280;3931;42.260;23.116;2022-12-05T08:40:32;96407.28;;;16.35;55.48
7774;BME280;3931;42.260;23.116;2022-12-05T08:42:58;96409.50;;;16.40;55.87
7774;BME280;3931;42.260;23.116;2022-12-05T08:45:24;96417.66;;;16.00;57.15
7774;BME280;3931;42.260;23.116;2022-12-05T08:47:50;96413.69;;;16.23;56.52
7774;BME280;3931;42.260;23.116;2022-12-05T08:50:17;96410.84;;;16.01;57.28
7774;BME280;3931;42.260;23.116;2022-12-05T08:52:43;96410.41;;;16.71;55.63
7774;BME280;3931;42.260;23.116;2022-12-05T08:55:09;96422.38;;;15.65;58.49
7774;BME280;3931;42.260;23.116;2022-12-05T08:57:35;96410.44;;;15.65;60.10
7774;BME280;3931;42.260;23.116;2022-12-05T09:00:03;96398.34;;;16.27;59.22
7774;BME280;3931;42.260;23.116;2022-12-05T09:02:30;96403.44;;;16.54;57.99
7774;BME280;3931;42.260;23.116;2022-12-05T09:04:56;96407.53;;;16.84;56.59
7774;BME280;3931;42.260;23.116;2022-12-05T09:07:23;96403.78;;;17.30;55.03
7774;BME280;3931;42.260;23.116;2022-12-05T09:09:49;96406.31;;;17.37;55.07
7774;BME280;3931;42.260;23.116;2022-12-05T09:12:16;96401.69;;;17.43;54.73
7774;BME280;3931;42.260;23.116;2022-12-05T09:14:42;96404.88;;;17.63;54.63
7774;BME280;3931;42.260;23.116;2022-12-05T09:17:08;96400.47;;;17.84;54.16
7774;BME280;3931;42.260;23.116;2022-12-05T09:19:34;96386.03;;;17.94;53.83
7774;BME280;3931;42.260;23.116;2022-12-05T09:22:01;96391.97;;;18.14;53.61
7774;BME280;3931;42.260;23.116;2022-12-05T09:24:27;96390.16;;;18.39;52.50
7774;BME280;3931;42.260;23.116;2022-12-05T09:26:54;96386.66;;;17.98;53.46
7774;BME280;3931;42.260;23.116;2022-12-05T09:29:20;96388.50;;;17.92;53.04
7774;BME280;3931;42.260;23.116;2022-12-05T09:31:47;96389.28;;;17.93;53.31
7774;BME280;3931;42.260;23.116;2022-12-05T09:34:16;96378.22;;;17.80;53.59
7774;BME280;3931;42.260;23.116;2022-12-05T09:36:44;96381.06;;;17.89;53.32
7774;BME280;3931;42.260;23.116;2022-12-05T09:39:14;96379.38;;;18.01;53.07
7774;BME280;3931;42.260;23.116;2022-12-05T09:44:52;96375.00;;;18.00;53.10
7774;BME280;3931;42.260;23.116;2022-12-05T09:47:28;96373.88;;;17.88;53.24
7774;BME280;3931;42.260;23.116;2022-12-05T09:49:59;96372.78;;;17.86;53.14
7774;BME280;3931;42.260;23.116;2022-12-05T09:52:29;96364.25;;;17.89;53.19
7774;BME280;3931;42.260;23.116;2022-12-05T09:55:00;96368.19;;;17.61;54.11
7774;BME280;3931;42.260;23.116;2022-12-05T09:57:33;96361.28;;;17.93;53.88
7774;BME280;3931;42.260;23.116;2022-12-05T10:00:03;96358.97;;;17.91;53.37
7774;BME280;3931;42.260;23.116;2022-12-05T10:02:35;96364.03;;;17.75;53.89
7774;BME280;3931;42.260;23.116;2022-12-05T10:05:11;96355.84;;;17.89;53.99
7774;BME280;3931;42.260;23.116;2022-12-05T10:07:44;96355.13;;;18.25;53.37
7774;BME280;3931;42.260;23.116;2022-12-05T10:10:22;96343.44;;;18.36;52.83
7774;BME280;3931;42.260;23.116;2022-12-05T10:13:09;96345.97;;;18.70;52.29
7774;BME280;3931;42.260;23.116;2022-12-05T10:15:43;96339.81;;;18.99;51.66
7774;BME280;3931;42.260;23.116;2022-12-05T10:18:21;96341.03;;;19.07;51.43
7774;BME280;3931;42.260;23.116;2022-12-05T10:20:53;96334.09;;;18.75;51.74
7774;BME280;3931;42.260;23.116;2022-12-05T10:23:23;96338.06;;;19.19;50.85
7774;BME280;3931;42.260;23.116;2022-12-05T10:25:55;96325.34;;;19.42;50.39
7774;BME280;3931;42.260;23.116;2022-12-05T10:28:27;96334.00;;;19.62;50.45
7774;BME280;3931;42.260;23.116;2022-12-05T10:31:00;96316.72;;;20.11;49.37
7774;BME280;3931;42.260;23.116;2022-12-05T10:33:32;96320.47;;;20.31;48.17
7774;BME280;3931;42.260;23.116;2022-12-05T10:36:04;96316.38;;;20.09;49.81
7774;BME280;3931;42.260;23.116;2022-12-05T10:38:34;96316.53;;;22.04;45.82
7774;BME280;3931;42.260;23.116;2022-12-05T10:41:04;96315.47;;;22.22;45.21
7774;BME280;3931;42.260;23.116;2022-12-05T10:43:34;96313.00;;;22.09;44.53
7774;BME280;3931;42.260;23.116;2022-12-05T10:46:01;96306.38;;;23.30;43.26
7774;BME280;3931;42.260;23.116;2022-12-05T10:48:28;96306.22;;;23.13;43.13
7774;BME280;3931;42.260;23.116;2022-12-05T10:50:56;96312.59;;;23.08;42.77
7774;BME280;3931;42.260;23.116;2022-12-05T10:53:25;96304.97;;;22.88;43.45
7774;BME280;3931;42.260;23.116;2022-12-05T10:55:52;96297.69;;;22.56;43.59
7774;BME280;3931;42.260;23.116;2022-12-05T10:58:21;96293.06;;;22.33;44.52
7774;BME280;3931;42.260;23.116;2022-12-05T11:00:52;96302.34;;;21.99;44.34
7774;BME280;3931;42.260;23.116;2022-12-05T11:03:27;96285.66;;;21.80;44.79
7774;BME280;3931;42.260;23.116;2022-12-05T11:05:55;96290.31;;;21.14;46.14
7774;BME280;3931;42.260;23.116;2022-12-05T11:08:24;96286.25;;;21.15;46.16
7774;BME280;3931;42.260;23.116;2022-12-05T11:11:00;96286.41;;;20.97;46.27
7774;BME280;3931;42.260;23.116;2022-12-05T11:13:27;96277.00;;;21.15;46.59
7774;BME280;3931;42.260;23.116;2022-12-05T11:15:54;96278.03;;;21.32;45.51
7774;BME280;3931;42.260;23.116;2022-12-05T11:18:27;96273.41;;;21.29;46.16
7774;BME280;3931;42.260;23.116;2022-12-05T11:20:53;96264.69;;;20.83;47.07
7774;BME280;3931;42.260;23.116;2022-12-05T11:23:25;96271.13;;;20.07;48.12
7774;BME280;3931;42.260;23.116;2022-12-05T11:25:52;96261.75;;;20.63;47.70
7774;BME280;3931;42.260;23.116;2022-12-05T11:28:28;96260.31;;;20.96;46.96
7774;BME280;3931;42.260;23.116;2022-12-05T11:30:57;96251.09;;;20.96;46.23
7774;BME280;3931;42.260;23.116;2022-12-05T11:33:25;96245.38;;;19.70;48.82
7774;BME280;3931;42.260;23.116;2022-12-05T11:35:53;96245.16;;;20.35;47.71
7774;BME280;3931;42.260;23.116;2022-12-05T11:38:25;96247.75;;;20.24;47.69
7774;BME280;3931;42.260;23.116;2022-12-05T11:40:56;96243.72;;;20.40;47.32
7774;BME280;3931;42.260;23.116;2022-12-05T11:43:43;96234.53;;;20.40;47.68
7774;BME280;3931;42.260;23.116;2022-12-05T11:46:26;96237.72;;;20.32;47.97
7774;BME280;3931;42.260;23.116;2022-12-05T11:49:06;96232.19;;;20.38;47.68
7774;BME280;3931;42.260;23.116;2022-12-05T11:51:38;96227.72;;;20.61;47.47
7774;BME280;3931;42.260;23.116;2022-12-05T11:54:22;96226.47;;;20.76;46.84
7774;BME280;3931;42.260;23.116;2022-12-05T11:56:58;96225.97;;;20.92;46.59
7774;BME280;3931;42.260;23.116;2022-12-05T11:59:52;96212.91;;;20.75;47.16
7774;BME280;3931;42.260;23.116;2022-12-05T12:02:33;96212.91;;;20.60;47.23
7774;BME280;3931;42.260;23.116;2022-12-05T12:05:11;96207.59;;;20.09;48.40
7774;BME280;3931;42.260;23.116;2022-12-05T12:07:58;96209.34;;;20.07;48.37
7774;BME280;3931;42.260;23.116;2022-12-05T12:10:34;96207.94;;;20.26;48.54
7774;BME280;3931;42.260;23.116;2022-12-05T12:13:18;96200.66;;;19.81;48.84
7774;BME280;3931;42.260;23.116;2022-12-05T12:15:57;96195.38;;;20.51;48.12
7774;BME280;3931;42.260;23.116;2022-12-05T12:19:09;96189.72;;;20.21;48.08
7774;BME280;3931;42.260;23.116;2022-12-05T12:21:55;96193.97;;;20.17;48.29
7774;BME280;3931;42.260;23.116;2022-12-05T12:24:32;96193.31;;;20.22;48.29
7774;BME280;3931;42.260;23.116;2022-12-05T12:27:10;96184.91;;;19.98;48.58
7774;BME280;3931;42.260;23.116;2022-12-05T12:29:50;96193.25;;;20.07;48.71
7774;BME280;3931;42.260;23.116;2022-12-05T12:32:28;96197.66;;;20.23;48.10
7774;BME280;3931;42.260;23.116;2022-12-05T12:35:21;96191.09;;;20.26;48.17
7774;BME280;3931;42.260;23.116;2022-12-05T12:37:59;96178.88;;;20.44;47.91
7774;BME280;3931;42.260;23.116;2022-12-05T12:40:31;96178.78;;;20.38;48.35
7774;BME280;3931;42.260;23.116;2022-12-05T12:43:06;96170.84;;;20.37;48.29
7774;BME280;3931;42.260;23.116;2022-12-05T12:45:55;96171.22;;;20.59;47.71
7774;BME280;3931;42.260;23.116;2022-12-05T12:48:45;96164.59;;;20.03;48.38
7774;BME280;3931;42.260;23.116;2022-12-05T12:51:18;96158.63;;;19.72;49.06
7774;BME280;3931;42.260;23.116;2022-12-05T12:54:04;96167.75;;;19.96;48.81
7774;BME280;3931;42.260;23.116;2022-12-05T12:56:44;96170.22;;;19.80;49.27
7774;BME280;3931;42.260;23.116;2022-12-05T12:59:35;96165.38;;;19.18;51.07
7774;BME280;3931;42.260;23.116;2022-12-05T13:02:12;96165.31;;;19.04;51.23
7774;BME280;3931;42.260;23.116;2022-12-05T13:04:47;96172.34;;;18.99;51.29
7774;BME280;3931;42.260;23.116;2022-12-05T13:07:17;96173.25;;;18.72;52.12
7774;BME280;3931;42.260;23.116;2022-12-05T13:09:49;96171.81;;;18.77;52.15
7774;BME280;3931;42.260;23.116;2022-12-05T13:12:23;96176.38;;;18.65;52.63
7774;BME280;3931;42.260;23.116;2022-12-05T13:14:54;96174.25;;;18.51;52.59
7774;BME280;3931;42.260;23.116;2022-12-05T13:17:23;96169.06;;;17.81;54.78
7774;BME280;3931;42.260;23.116;2022-12-05T13:19:50;96170.19;;;16.98;57.52
7774;BME280;3931;42.260;23.116;2022-12-05T13:22:20;96181.78;;;18.09;55.28
7774;BME280;3931;42.260;23.116;2022-12-05T13:24:49;96183.75;;;18.36;54.82
7774;BME280;3931;42.260;23.116;2022-12-05T13:27:17;96169.78;;;18.08;55.72
7774;BME280;3931;42.260;23.116;2022-12-05T13:29:48;96179.00;;;17.73;56.29
7774;BME280;3931;42.260;23.116;2022-12-05T13:32:29;96171.81;;;18.17;55.12
7774;BME280;3931;42.260;23.116;2022-12-05T13:34:57;96167.47;;;18.07;56.44